Time;durP1;ratioP1;P1;durP2;ratioP2;P2;SDS_P1;SDS_P2;PMS_P1;PMS_P2;Temp;Humidity;BMP_temperature;BMP_pressure;BME280_temperature;BME280_humidity;BME280_pressure;Samples;Min_cycle;Max_cycle;Signal;HPM_P1;HPM_P2
2023/03/20 00:01:25;;;;;;;3.80;2.67;;;7.40;99.90;;;;;;5051963;28;20056;-63
2023/03/20 00:03:51;;;;;;;4.22;3.60;;;7.40;99.90;;;;;;5069319;28;20054;-63
2023/03/20 00:06:25;;;;;;;4.60;4.10;;;7.30;99.90;;;;;;5070236;28;20045;-63
2023/03/20 00:08:53;;;;;;;3.97;3.03;;;7.40;99.90;;;;;;5068700;28;20044;-64
2023/03/20 00:11:35;;;;;;;3.97;2.83;;;7.40;99.90;;;;;;5069931;28;20060;-63
2023/03/20 00:14:05;;;;;;;3.53;3.20;;;7.40;99.90;;;;;;5052042;28;20052;-63
2023/03/20 00:16:33;;;;;;;3.28;2.90;;;7.40;99.90;;;;;;5069424;28;20052;-63
2023/03/20 00:18:59;;;;;;;4.55;3.28;;;7.40;99.90;;;;;;5069281;28;20044;-63
2023/03/20 00:21:26;;;;;;;4.97;3.30;;;7.40;99.90;;;;;;5068854;28;20048;-63
2023/03/20 00:23:53;;;;;;;4.97;2.63;;;7.40;99.90;;;;;;5051621;28;20053;-63
2023/03/20 00:26:21;;;;;;;4.60;3.65;;;7.40;99.90;;;;;;5051746;28;20055;-63
2023/03/20 00:28:48;;;;;;;5.55;4.20;;;7.50;99.90;;;;;;5068730;28;20041;-63
2023/03/20 00:31:25;;;;;;;4.00;3.25;;;7.50;99.90;;;;;;5069062;28;20145;-64
2023/03/20 00:33:56;;;;;;;5.57;4.25;;;7.50;99.90;;;;;;5068052;28;20090;-63
2023/03/20 00:36:23;;;;;;;7.90;2.92;;;7.50;99.90;;;;;;5069905;28;20040;-64
2023/03/20 00:38:49;;;;;;;4.72;3.47;;;7.50;99.90;;;;;;5049514;28;20060;-64
2023/03/20 00:41:21;;;;;;;4.20;3.65;;;7.50;99.90;;;;;;5049751;28;20048;-64
2023/03/20 00:43:51;;;;;;;6.35;3.70;;;7.50;99.90;;;;;;5067668;28;20135;-64
2023/03/20 00:46:17;;;;;;;10.35;4.00;;;7.50;99.90;;;;;;5066677;28;20060;-64
2023/03/20 00:48:44;;;;;;;10.43;4.57;;;7.50;99.90;;;;;;5067713;28;20059;-64
2023/03/20 00:51:10;;;;;;;6.68;3.95;;;7.60;99.90;;;;;;5067441;28;20131;-64
2023/03/20 00:53:36;;;;;;;17.77;4.25;;;7.60;99.90;;;;;;5067470;28;20037;-64
2023/03/20 00:56:02;;;;;;;4.28;3.10;;;7.50;99.90;;;;;;5067365;28;20504;-64
2023/03/20 00:58:28;;;;;;;4.20;2.47;;;7.60;99.90;;;;;;5049096;28;20052;-63
2023/03/20 01:00:55;;;;;;;5.45;3.92;;;7.60;99.90;;;;;;5028786;28;20395;-63
2023/03/20 01:03:23;;;;;;;4.30;3.10;;;7.50;99.90;;;;;;5032099;28;20513;-64
2023/03/20 01:05:49;;;;;;;3.25;2.05;;;7.50;99.90;;;;;;5049530;28;20477;-63
2023/03/20 01:08:24;;;;;;;4.45;3.72;;;7.50;99.90;;;;;;5048892;28;20509;-64
2023/03/20 01:10:53;;;;;;;3.85;2.13;;;7.50;99.90;;;;;;5066406;28;20135;-63
2023/03/20 01:13:27;;;;;;;4.45;2.50;;;7.50;99.90;;;;;;5067220;28;20040;-63
2023/03/20 01:15:55;;;;;;;9.55;3.22;;;7.50;99.90;;;;;;5067088;28;20050;-64
2023/03/20 01:18:22;;;;;;;4.63;3.05;;;7.50;99.90;;;;;;5067671;28;20468;-64
2023/03/20 01:20:49;;;;;;;9.10;3.00;;;7.50;99.90;;;;;;5048369;28;20045;-64
2023/03/20 01:23:15;;;;;;;10.50;4.10;;;7.50;99.90;;;;;;5067155;28;20102;-63
2023/03/20 01:25:41;;;;;;;4.50;3.13;;;7.50;99.90;;;;;;5012806;28;20125;-63
2023/03/20 01:28:17;;;;;;;10.95;3.22;;;7.50;99.90;;;;;;5063245;28;20154;-64
2023/03/20 01:30:43;;;;;;;7.00;2.63;;;7.50;99.90;;;;;;5066979;28;20461;-63
2023/03/20 01:33:18;;;;;;;4.88;2.95;;;7.50;99.90;;;;;;5031459;28;20048;-63
2023/03/20 01:35:45;;;;;;;4.03;2.97;;;7.50;99.90;;;;;;5067367;28;20127;-64
2023/03/20 01:38:19;;;;;;;8.98;3.65;;;7.40;99.90;;;;;;5065664;28;20060;-63
2023/03/20 01:40:51;;;;;;;6.93;3.67;;;7.40;99.90;;;;;;5049413;28;20053;-64
2023/03/20 01:43:19;;;;;;;4.50;2.97;;;7.40;99.90;;;;;;5066111;28;20048;-63
2023/03/20 01:46:05;;;;;;;4.78;2.67;;;7.30;99.90;;;;;;5066820;28;20399;-64
2023/03/20 01:48:48;;;;;;;4.97;3.20;;;7.40;99.90;;;;;;5066900;28;20059;-64
2023/03/20 01:51:15;;;;;;;5.55;2.78;;;7.40;99.90;;;;;;5056477;28;20525;-64
2023/03/20 01:53:42;;;;;;;5.50;2.70;;;7.30;99.90;;;;;;5066553;28;20037;-63
2023/03/20 01:56:08;;;;;;;4.25;2.67;;;7.40;99.90;;;;;;5048525;28;20044;-64
2023/03/20 01:58:37;;;;;;;4.47;3.40;;;7.30;99.90;;;;;;5048507;28;20499;-64
2023/03/20 02:01:07;;;;;;;7.03;3.13;;;7.30;99.90;;;;;;5066106;28;20123;-64
2023/03/20 02:03:33;;;;;;;8.02;3.20;;;7.30;99.90;;;;;;5048219;28;20437;-64
2023/03/20 02:05:59;;;;;;;6.60;2.80;;;7.30;99.90;;;;;;5048451;28;20079;-64
2023/03/20 02:08:28;;;;;;;7.97;2.95;;;7.30;99.90;;;;;;5068295;28;20165;-64
2023/03/20 02:10:56;;;;;;;4.30;3.08;;;7.30;99.90;;;;;;5070308;28;20036;-64
2023/03/20 02:13:25;;;;;;;4.70;2.75;;;7.30;99.90;;;;;;5070845;28;20133;-64
2023/03/20 02:16:08;;;;;;;6.78;2.88;;;7.30;99.90;;;;;;5052158;28;20052;-64
2023/03/20 02:18:35;;;;;;;6.38;3.10;;;7.30;99.90;;;;;;5070973;28;20082;-64
2023/03/20 02:21:28;;;;;;;8.52;3.00;;;7.30;99.90;;;;;;5069516;28;20045;-64
2023/03/20 02:24:08;;;;;;;6.40;3.00;;;7.30;99.90;;;;;;5070592;28;20491;-64
2023/03/20 02:26:34;;;;;;;4.85;2.85;;;7.30;99.90;;;;;;5070166;28;20568;-64
2023/03/20 02:29:12;;;;;;;7.22;3.05;;;7.20;99.90;;;;;;5052021;28;20064;-64
2023/03/20 02:32:05;;;;;;;5.40;2.90;;;7.20;99.90;;;;;;5070456;28;20040;-64
2023/03/20 02:34:50;;;;;;;5.50;3.10;;;7.20;99.90;;;;;;5069619;28;20056;-64
2023/03/20 02:37:50;;;;;;;8.00;3.15;;;7.30;99.90;;;;;;5069943;28;20048;-64
2023/03/20 02:40:44;;;;;;;11.35;3.30;;;7.20;99.90;;;;;;5070419;28;20043;-63
2023/03/20 02:43:16;;;;;;;11.90;4.15;;;7.30;99.90;;;;;;5051180;28;20053;-64
2023/03/20 02:45:47;;;;;;;7.03;3.10;;;7.20;99.90;;;;;;5052438;28;20052;-64
2023/03/20 02:48:35;;;;;;;13.68;3.67;;;7.20;99.90;;;;;;5069211;28;20048;-64
2023/03/20 02:51:01;;;;;;;11.13;4.15;;;7.30;99.90;;;;;;5051257;28;20177;-64
2023/03/20 02:53:48;;;;;;;7.88;3.50;;;7.20;99.90;;;;;;5070368;28;20052;-64
2023/03/20 02:56:25;;;;;;;8.18;3.63;;;7.30;99.90;;;;;;5069555;28;20135;-64
2023/03/20 02:59:18;;;;;;;7.15;3.30;;;7.30;99.90;;;;;;5056204;28;20044;-64
2023/03/20 03:01:52;;;;;;;8.50;4.05;;;7.30;99.90;;;;;;5070034;28;20044;-64
2023/03/20 03:04:22;;;;;;;13.93;4.45;;;7.30;99.90;;;;;;5067210;28;20029;-64
2023/03/20 03:06:54;;;;;;;11.13;4.53;;;7.30;99.90;;;;;;5064907;28;20048;-64
2023/03/20 03:09:34;;;;;;;11.70;4.35;;;7.30;99.90;;;;;;5062919;28;20043;-64
2023/03/20 03:12:16;;;;;;;13.38;4.78;;;7.30;99.90;;;;;;5069869;28;20052;-64
2023/03/20 03:14:59;;;;;;;11.93;4.80;;;7.30;99.90;;;;;;5069353;28;20071;-64
2023/03/20 03:17:28;;;;;;;15.32;4.88;;;7.30;99.90;;;;;;5050563;28;20090;-64
2023/03/20 03:19:59;;;;;;;14.82;4.65;;;7.40;99.90;;;;;;5069807;28;20067;-64
2023/03/20 03:22:26;;;;;;;12.25;4.53;;;7.40;99.90;;;;;;5068971;28;20070;-64
2023/03/20 03:24:53;;;;;;;9.35;4.65;;;7.40;99.90;;;;;;5050901;28;20555;-64
2023/03/20 03:27:25;;;;;;;9.93;4.93;;;7.40;99.90;;;;;;5068691;28;20044;-64
2023/03/20 03:29:55;;;;;;;12.23;5.15;;;7.40;99.90;;;;;;5068950;28;20075;-64
2023/03/20 03:32:29;;;;;;;17.92;5.05;;;7.40;99.90;;;;;;5051576;28;20040;-64
2023/03/20 03:34:55;;;;;;;13.98;4.47;;;7.40;99.90;;;;;;5068545;28;20498;-64
2023/03/20 03:37:47;;;;;;;18.00;5.53;;;7.40;99.90;;;;;;5068777;28;20097;-64
2023/03/20 03:40:31;;;;;;;17.73;5.93;;;7.40;99.90;;;;;;5034061;28;20045;-64
2023/03/20 03:43:13;;;;;;;17.23;5.47;;;7.40;99.90;;;;;;5068384;28;20048;-64
2023/03/20 03:45:47;;;;;;;12.50;5.13;;;7.40;99.90;;;;;;5066836;28;20189;-64
2023/03/20 03:48:23;;;;;;;13.43;5.53;;;7.40;99.90;;;;;;5033565;28;20052;-64
2023/03/20 03:50:55;;;;;;;13.43;4.88;;;7.40;99.90;;;;;;5069068;28;20052;-63
2023/03/20 03:53:31;;;;;;;15.98;5.22;;;7.50;99.90;;;;;;5050491;28;20370;-64
2023/03/20 03:56:02;;;;;;;16.48;5.50;;;7.50;99.90;;;;;;5068414;28;20055;-64
2023/03/20 03:58:48;;;;;;;15.57;5.97;;;7.50;99.90;;;;;;5048377;28;20044;-64
2023/03/20 04:01:16;;;;;;;13.32;4.93;;;7.50;99.90;;;;;;5060385;28;20098;-64
2023/03/20 04:03:48;;;;;;;13.68;5.10;;;7.50;99.90;;;;;;5068443;28;20058;-64
2023/03/20 04:06:16;;;;;;;22.65;5.90;;;7.50;99.90;;;;;;5050203;28;20048;-64
2023/03/20 04:08:42;;;;;;;11.55;6.40;;;7.50;99.90;;;;;;5050337;28;20047;-64
2023/03/20 04:11:15;;;;;;;15.98;5.53;;;7.50;99.90;;;;;;5050681;28;20433;-64
2023/03/20 04:13:41;;;;;;;17.58;6.32;;;7.50;99.90;;;;;;5068301;28;20045;-64
2023/03/20 04:16:13;;;;;;;16.20;4.75;;;7.50;99.90;;;;;;5050587;28;20049;-64
2023/03/20 04:18:39;;;;;;;19.23;6.00;;;7.60;99.90;;;;;;5050660;28;20040;-64
2023/03/20 04:21:05;;;;;;;16.52;5.88;;;7.50;99.90;;;;;;5050192;28;20044;-64
2023/03/20 04:23:31;;;;;;;14.48;5.68;;;7.50;99.90;;;;;;5068121;28;20036;-64
2023/03/20 04:25:58;;;;;;;26.67;6.65;;;7.50;99.90;;;;;;5049572;28;20098;-64
2023/03/20 04:28:24;;;;;;;15.18;6.35;;;7.50;99.90;;;;;;5067998;28;20036;-64
2023/03/20 04:30:58;;;;;;;13.23;6.30;;;7.50;99.90;;;;;;5048605;28;20113;-64
2023/03/20 04:33:25;;;;;;;23.48;6.40;;;7.50;99.90;;;;;;5067830;28;20036;-64
2023/03/20 04:35:51;;;;;;;19.70;6.50;;;7.50;99.90;;;;;;5068031;28;20045;-64
2023/03/20 04:38:18;;;;;;;17.23;6.53;;;7.50;99.90;;;;;;5065702;28;20048;-64
2023/03/20 04:40:45;;;;;;;12.55;5.85;;;7.60;99.90;;;;;;5068154;28;20052;-64
2023/03/20 04:43:11;;;;;;;8.82;4.18;;;7.50;99.90;;;;;;5067584;28;20615;-64
2023/03/20 04:45:37;;;;;;;20.15;7.32;;;7.50;99.90;;;;;;5033198;28;20079;-64
2023/03/20 04:48:03;;;;;;;15.57;6.70;;;7.50;99.90;;;;;;5067099;28;20451;-64
2023/03/20 04:50:29;;;;;;;16.95;6.78;;;7.50;99.90;;;;;;5067603;28;20151;-64
2023/03/20 04:52:55;;;;;;;13.60;5.85;;;7.60;99.90;;;;;;5049580;28;20132;-64
2023/03/20 04:55:21;;;;;;;17.90;6.63;;;7.60;99.90;;;;;;5066600;28;20048;-64
2023/03/20 04:57:47;;;;;;;10.75;6.03;;;7.60;99.90;;;;;;5049980;28;20485;-64
2023/03/20 05:00:13;;;;;;;15.27;7.30;;;7.60;99.90;;;;;;5066995;28;20048;-64
2023/03/20 05:02:39;;;;;;;16.20;7.40;;;7.60;99.90;;;;;;5067338;28;20079;-64
2023/03/20 05:05:05;;;;;;;15.27;7.50;;;7.50;99.90;;;;;;5049066;28;20080;-64
2023/03/20 05:07:31;;;;;;;15.70;7.13;;;7.50;99.90;;;;;;5067318;28;20143;-64
2023/03/20 05:09:57;;;;;;;23.30;6.63;;;7.50;99.90;;;;;;5048598;28;20048;-64
2023/03/20 05:12:23;;;;;;;13.68;6.53;;;7.60;99.90;;;;;;5046556;28;20115;-64
2023/03/20 05:14:49;;;;;;;20.38;7.20;;;7.60;99.90;;;;;;5067387;28;20111;-64
2023/03/20 05:17:17;;;;;;;13.73;6.78;;;7.50;99.90;;;;;;5067216;28;20048;-64
2023/03/20 05:19:43;;;;;;;12.77;6.43;;;7.60;99.90;;;;;;5066738;28;20084;-64
2023/03/20 05:22:09;;;;;;;28.95;7.10;;;7.50;99.90;;;;;;5066554;28;20509;-64
2023/03/20 05:24:34;;;;;;;13.30;6.68;;;7.60;99.90;;;;;;5049221;28;20059;-64
2023/03/20 05:27:00;;;;;;;20.70;7.10;;;7.60;99.90;;;;;;5048919;28;20032;-64
2023/03/20 05:29:26;;;;;;;15.43;6.18;;;7.50;99.90;;;;;;5048743;28;20052;-64
2023/03/20 05:31:54;;;;;;;15.05;6.95;;;7.60;99.90;;;;;;5066094;28;20047;-64
2023/03/20 05:34:20;;;;;;;16.80;6.82;;;7.60;99.90;;;;;;5067041;28;20483;-64
2023/03/20 05:36:46;;;;;;;14.88;7.35;;;7.60;99.90;;;;;;5066581;28;20040;-64
2023/03/20 05:39:12;;;;;;;16.35;6.45;;;7.60;99.90;;;;;;5066289;28;20600;-64
2023/03/20 05:41:38;;;;;;;13.27;6.53;;;7.50;99.90;;;;;;5048744;28;20086;-64
2023/03/20 05:44:04;;;;;;;8.85;6.18;;;7.60;99.90;;;;;;5047351;28;20108;-64
2023/03/20 05:46:30;;;;;;;15.93;7.03;;;7.60;99.90;;;;;;5066743;28;20418;-64
2023/03/20 05:48:56;;;;;;;10.90;6.10;;;7.60;99.90;;;;;;5048672;28;20476;-64
2023/03/20 05:51:21;;;;;;;15.70;6.93;;;7.50;99.90;;;;;;5048738;28;20040;-64
2023/03/20 05:53:47;;;;;;;18.27;6.85;;;7.50;99.90;;;;;;5047806;28;20546;-64
2023/03/20 05:56:13;;;;;;;15.98;6.65;;;7.60;99.90;;;;;;5048580;28;20097;-64
2023/03/20 05:58:39;;;;;;;16.27;6.60;;;7.60;99.90;;;;;;5066520;28;20071;-63
2023/03/20 06:01:04;;;;;;;18.45;6.15;;;7.60;99.90;;;;;;5048177;28;20072;-64
2023/03/20 06:03:30;;;;;;;12.38;6.22;;;7.50;99.90;;;;;;5066521;28;20048;-64
2023/03/20 06:05:56;;;;;;;10.18;4.70;;;7.60;99.90;;;;;;5066233;28;20076;-64
2023/03/20 06:08:22;;;;;;;11.90;5.20;;;7.60;99.90;;;;;;5066602;28;20052;-64
2023/03/20 06:10:51;;;;;;;12.85;5.68;;;7.60;99.90;;;;;;5066165;28;20506;-64
2023/03/20 06:13:17;;;;;;;10.10;5.63;;;7.70;99.90;;;;;;5048467;28;20127;-64
2023/03/20 06:15:43;;;;;;;11.30;5.30;;;7.70;99.90;;;;;;5064724;28;20123;-64
2023/03/20 06:18:09;;;;;;;11.55;5.22;;;7.70;99.90;;;;;;5048185;28;20037;-64
2023/03/20 06:20:34;;;;;;;12.93;5.47;;;7.70;99.90;;;;;;5048438;28;20135;-64
2023/03/20 06:23:00;;;;;;;11.32;5.72;;;7.70;99.90;;;;;;5065693;28;20040;-64
2023/03/20 06:25:26;;;;;;;15.80;6.70;;;7.70;99.90;;;;;;5048495;28;20064;-64
2023/03/20 06:27:51;;;;;;;13.05;5.30;;;7.70;99.90;;;;;;5048023;28;20431;-63
2023/03/20 06:30:17;;;;;;;14.32;5.25;;;7.70;99.90;;;;;;5048571;28;20036;-64
2023/03/20 06:32:43;;;;;;;14.07;5.22;;;7.70;99.90;;;;;;5047803;28;20104;-64
2023/03/20 06:35:10;;;;;;;10.20;5.40;;;7.70;99.90;;;;;;5066018;28;20040;-64
2023/03/20 06:37:36;;;;;;;15.65;5.40;;;7.80;99.90;;;;;;5066210;28;20079;-64
2023/03/20 06:40:03;;;;;;;13.10;5.32;;;7.80;99.90;;;;;;5028040;28;20045;-64
2023/03/20 06:42:29;;;;;;;13.43;5.30;;;7.80;99.90;;;;;;5058568;28;20044;-64
2023/03/20 06:44:55;;;;;;;9.27;5.50;;;7.80;99.90;;;;;;5065548;28;20044;-64
2023/03/20 06:47:21;;;;;;;12.15;5.55;;;7.80;99.90;;;;;;5066432;28;20163;-64
2023/03/20 06:49:47;;;;;;;11.32;5.55;;;7.80;99.90;;;;;;5047491;28;20055;-64
2023/03/20 06:52:16;;;;;;;9.00;5.25;;;7.80;99.90;;;;;;5047981;28;20033;-64
2023/03/20 06:54:41;;;;;;;13.93;5.70;;;7.80;99.90;;;;;;5067445;28;20055;-64
2023/03/20 06:57:07;;;;;;;13.15;5.95;;;7.80;99.90;;;;;;5069444;28;20024;-64
2023/03/20 06:59:33;;;;;;;18.25;6.32;;;7.80;99.90;;;;;;5070482;28;20032;-64
2023/03/20 07:02:02;;;;;;;10.23;6.00;;;7.80;99.90;;;;;;5051880;28;20044;-64
2023/03/20 07:04:28;;;;;;;12.52;6.03;;;7.90;99.90;;;;;;5069999;28;20037;-64
2023/03/20 07:06:54;;;;;;;13.00;6.28;;;7.90;99.90;;;;;;5034459;28;20387;-64
2023/03/20 07:09:21;;;;;;;11.05;6.43;;;7.90;99.90;;;;;;5069235;28;20509;-64
2023/03/20 07:11:47;;;;;;;13.02;6.63;;;7.90;99.90;;;;;;5051525;28;20119;-64
2023/03/20 07:14:13;;;;;;;18.90;7.57;;;7.90;99.90;;;;;;5069321;28;20049;-64
2023/03/20 07:16:40;;;;;;;18.15;6.53;;;7.90;99.90;;;;;;5051729;28;20047;-64
2023/03/20 07:19:06;;;;;;;19.85;7.18;;;7.90;99.90;;;;;;5034315;28;20145;-64
2023/03/20 07:21:32;;;;;;;15.52;6.72;;;8.00;99.90;;;;;;5051966;28;20072;-64
2023/03/20 07:23:58;;;;;;;12.40;6.60;;;8.00;99.90;;;;;;5050667;28;20056;-64
2023/03/20 07:26:24;;;;;;;15.63;7.00;;;8.00;99.90;;;;;;5067366;28;20036;-64
2023/03/20 07:28:50;;;;;;;15.73;7.57;;;8.00;99.90;;;;;;5068167;28;20053;-64
2023/03/20 07:31:34;;;;;;;14.55;7.10;;;8.00;99.90;;;;;;5066838;28;20036;-64
2023/03/20 07:34:00;;;;;;;19.90;6.65;;;8.00;99.90;;;;;;5060592;28;20127;-64
2023/03/20 07:36:26;;;;;;;15.10;7.60;;;8.10;99.90;;;;;;5068400;28;20047;-64
2023/03/20 07:38:52;;;;;;;9.23;4.00;;;8.20;99.90;;;;;;5068644;28;20053;-64
2023/03/20 07:41:18;;;;;;;12.60;7.20;;;8.20;99.90;;;;;;5068804;28;20432;-64
2023/03/20 07:43:44;;;;;;;12.32;6.53;;;8.30;99.90;;;;;;5068403;28;20049;-64
2023/03/20 07:46:10;;;;;;;12.02;7.15;;;8.40;99.90;;;;;;5068721;28;20391;-64
2023/03/20 07:48:35;;;;;;;8.82;4.88;;;8.40;99.90;;;;;;5068010;28;20426;-64
2023/03/20 07:51:01;;;;;;;15.68;6.95;;;8.40;99.90;;;;;;5049625;28;20128;-64
2023/03/20 07:53:27;;;;;;;15.02;7.75;;;8.50;99.90;;;;;;5047505;28;20435;-64
2023/03/20 07:55:53;;;;;;;13.77;7.50;;;8.50;99.90;;;;;;5050782;28;20032;-64
2023/03/20 07:58:19;;;;;;;19.75;7.25;;;8.60;99.90;;;;;;5050264;28;20068;-63
2023/03/20 08:00:44;;;;;;;13.50;6.95;;;8.60;99.90;;;;;;5067019;28;20460;-64
2023/03/20 08:03:10;;;;;;;15.18;6.57;;;8.60;99.90;;;;;;5042383;28;20036;-64
2023/03/20 08:05:36;;;;;;;13.63;6.68;;;8.70;99.90;;;;;;5044458;28;20036;-64
2023/03/20 08:08:02;;;;;;;9.02;5.15;;;8.70;99.90;;;;;;5042175;28;20138;-64
2023/03/20 08:10:28;;;;;;;15.63;7.65;;;8.70;99.90;;;;;;5064799;28;20135;-64
2023/03/20 08:12:54;;;;;;;18.30;7.53;;;8.80;99.90;;;;;;5050001;28;20048;-64
2023/03/20 08:15:19;;;;;;;10.85;7.25;;;8.90;99.90;;;;;;5045906;28;20068;-64
2023/03/20 08:17:45;;;;;;;12.13;6.75;;;9.00;99.90;;;;;;5059526;28;20119;-63
2023/03/20 08:20:13;;;;;;;19.67;6.68;;;9.00;99.90;;;;;;5033289;28;20041;-64
2023/03/20 08:22:39;;;;;;;18.48;8.45;;;9.10;99.90;;;;;;5042154;28;20055;-64
2023/03/20 08:25:07;;;;;;;20.52;7.63;;;9.20;99.90;;;;;;5050099;28;20041;-64
2023/03/20 08:27:33;;;;;;;15.68;7.68;;;9.30;99.90;;;;;;5064295;28;20045;-64
2023/03/20 08:29:59;;;;;;;13.65;7.57;;;9.40;99.90;;;;;;5067183;28;20048;-64
2023/03/20 08:32:25;;;;;;;12.50;7.40;;;9.50;99.90;;;;;;5049439;28;20033;-64
2023/03/20 08:34:53;;;;;;;17.02;7.88;;;9.50;99.10;;;;;;5049729;28;20056;-64
2023/03/20 08:37:20;;;;;;;19.60;7.75;;;9.60;99.90;;;;;;5067434;28;20089;-64
2023/03/20 08:39:46;;;;;;;12.23;7.57;;;9.80;99.20;;;;;;5062518;28;20056;-64
2023/03/20 08:42:12;;;;;;;16.02;8.00;;;9.80;99.70;;;;;;5065831;28;20246;-64
2023/03/20 08:44:38;;;;;;;15.60;8.18;;;9.90;98.40;;;;;;5061664;28;20095;-63
2023/03/20 08:47:06;;;;;;;16.63;7.95;;;10.00;97.40;;;;;;5045539;28;20049;-64
2023/03/20 08:49:32;;;;;;;14.40;8.30;;;10.00;96.60;;;;;;5048536;28;20530;-64
2023/03/20 08:51:59;;;;;;;11.30;5.72;;;10.10;97.40;;;;;;5066506;28;20489;-64
2023/03/20 08:54:25;;;;;;;13.93;7.68;;;10.20;97.20;;;;;;5067369;28;20068;-64
2023/03/20 08:56:51;;;;;;;15.95;7.28;;;10.20;95.00;;;;;;5049413;28;20133;-64
2023/03/20 08:59:18;;;;;;;15.25;7.03;;;10.20;95.70;;;;;;5067121;28;20068;-64
2023/03/20 09:01:44;;;;;;;20.25;8.68;;;10.10;93.30;;;;;;5048324;28;20515;-64
2023/03/20 09:04:12;;;;;;;17.95;7.82;;;10.00;91.70;;;;;;5066857;28;20075;-64
2023/03/20 09:06:38;;;;;;;14.77;6.88;;;9.90;93.90;;;;;;5066763;28;20398;-63
2023/03/20 09:09:04;;;;;;;14.77;7.00;;;10.00;94.20;;;;;;5032057;28;20433;-64
2023/03/20 09:11:30;;;;;;;14.70;7.57;;;9.90;93.50;;;;;;5049001;28;20085;-64
2023/03/20 09:13:55;;;;;;;16.20;6.15;;;9.90;93.10;;;;;;5066782;28;20052;-64
2023/03/20 09:16:21;;;;;;;12.85;6.63;;;9.90;93.30;;;;;;5032540;28;20486;-63
2023/03/20 09:18:47;;;;;;;16.77;7.03;;;9.90;93.90;;;;;;5032136;28;20043;-63
2023/03/20 09:21:13;;;;;;;13.05;8.10;;;9.90;93.70;;;;;;5066310;28;20041;-64
2023/03/20 09:23:38;;;;;;;8.38;4.82;;;9.90;93.20;;;;;;5029432;28;20044;-63
2023/03/20 09:26:04;;;;;;;22.13;7.55;;;9.90;92.10;;;;;;5035472;28;20067;-64
2023/03/20 09:28:30;;;;;;;15.90;7.82;;;9.90;91.90;;;;;;5064531;28;20391;-64
2023/03/20 09:30:57;;;;;;;20.35;8.10;;;10.00;93.60;;;;;;5063245;28;20036;-64
2023/03/20 09:33:23;;;;;;;19.30;7.55;;;10.10;91.40;;;;;;5060621;28;20040;-64
2023/03/20 09:35:49;;;;;;;16.85;8.25;;;10.10;92.30;;;;;;5046805;28;20044;-64
2023/03/20 09:38:15;;;;;;;18.83;8.05;;;10.20;90.00;;;;;;5047828;28;20502;-63
2023/03/20 09:40:50;;;;;;;15.57;8.57;;;10.30;91.30;;;;;;5048019;28;20064;-63
2023/03/20 09:43:25;;;;;;;13.90;7.30;;;10.30;90.90;;;;;;5047864;28;20047;-63
2023/03/20 09:46:32;;;;;;;17.10;7.00;;;10.30;90.50;;;;;;5065104;28;20052;-64
2023/03/20 09:49:00;;;;;;;18.33;7.47;;;10.30;87.50;;;;;;5018765;28;20066;-64
2023/03/20 09:51:45;;;;;;;26.52;8.10;;;10.40;92.10;;;;;;5063786;28;20036;-64
2023/03/20 09:54:26;;;;;;;24.13;7.28;;;10.50;91.90;;;;;;5056780;28;20134;-64
2023/03/20 09:56:55;;;;;;;16.02;7.28;;;10.60;91.80;;;;;;5054566;28;20048;-64
2023/03/20 09:59:24;;;;;;;11.50;5.93;;;10.70;92.80;;;;;;5056329;28;20044;-65
2023/03/20 10:02:03;;;;;;;14.70;6.80;;;10.90;92.50;;;;;;5059541;28;20068;-64
2023/03/20 10:04:29;;;;;;;13.25;6.15;;;11.00;91.00;;;;;;5064688;28;20173;-64
2023/03/20 10:06:55;;;;;;;23.25;7.75;;;11.00;89.20;;;;;;5024439;28;20084;-64
2023/03/20 10:09:27;;;;;;;14.73;5.65;;;10.90;86.50;;;;;;5064534;28;20054;-65
2023/03/20 10:12:11;;;;;;;17.98;8.23;;;10.90;89.80;;;;;;5048130;28;20044;-64
2023/03/20 10:15:12;;;;;;;13.23;6.65;;;11.00;90.10;;;;;;5062251;28;20380;-64
2023/03/20 10:17:57;;;;;;;16.45;6.50;;;11.00;83.60;;;;;;4972719;28;20054;-64
2023/03/20 10:20:33;;;;;;;18.73;6.80;;;11.00;82.70;;;;;;5052989;28;20122;-64
2023/03/20 10:23:14;;;;;;;18.50;6.43;;;11.10;85.30;;;;;;5042748;28;20083;-64
2023/03/20 10:25:51;;;;;;;14.15;5.80;;;11.20;80.70;;;;;;5060300;28;20037;-64
2023/03/20 10:28:23;;;;;;;7.18;3.38;;;11.30;83.80;;;;;;5057417;28;20077;-64
2023/03/20 10:31:26;;;;;;;11.65;5.90;;;11.30;75.50;;;;;;5051920;28;20055;-64
2023/03/20 10:34:20;;;;;;;11.70;5.00;;;11.30;77.20;;;;;;5048500;28;20479;-64
2023/03/20 10:37:07;;;;;;;12.80;5.88;;;11.30;79.00;;;;;;5052821;28;20105;-64
2023/03/20 10:39:45;;;;;;;15.25;6.55;;;11.40;79.80;;;;;;5065475;28;20052;-64
2023/03/20 10:42:18;;;;;;;17.02;6.65;;;11.30;78.60;;;;;;5069088;28;20444;-64
2023/03/20 10:44:59;;;;;;;18.58;6.32;;;11.40;78.10;;;;;;5027548;28;20052;-64
2023/03/20 10:47:29;;;;;;;11.52;5.22;;;11.40;74.40;;;;;;5069527;28;20044;-64
2023/03/20 10:50:20;;;;;;;8.95;3.70;;;11.40;78.70;;;;;;5065680;28;20482;-64
2023/03/20 10:52:49;;;;;;;14.77;5.32;;;11.40;77.30;;;;;;5070357;28;20043;-64
2023/03/20 10:55:37;;;;;;;12.45;5.03;;;11.40;73.80;;;;;;5067328;28;20062;-64
2023/03/20 10:58:23;;;;;;;15.10;5.75;;;11.30;73.70;;;;;;5050851;28;20155;-64
2023/03/20 11:00:49;;;;;;;11.90;6.03;;;11.30;74.20;;;;;;5067970;28;20074;-64
2023/03/20 11:03:24;;;;;;;8.05;3.45;;;11.30;75.40;;;;;;5068223;28;20127;-64
2023/03/20 11:06:01;;;;;;;4.32;2.88;;;11.30;73.70;;;;;;5067408;28;20036;-64
2023/03/20 11:08:41;;;;;;;16.33;5.15;;;11.20;74.20;;;;;;5063929;28;20410;-64
2023/03/20 11:11:07;;;;;;;;;;;11.20;78.30;;;;;;5051372;28;20592;-64
2023/03/20 11:13:35;;;;;;;16.70;6.78;;;11.10;79.70;;;;;;5051533;28;20290;-64
2023/03/20 11:16:24;;;;;;;9.25;3.70;;;11.20;80.70;;;;;;5043342;28;20406;-64
2023/03/20 11:18:52;;;;;;;10.63;4.68;;;11.10;79.30;;;;;;5034895;28;20048;-63
2023/03/20 11:21:27;;;;;;;15.35;6.07;;;11.10;77.70;;;;;;5066443;28;20060;-64
2023/03/20 11:23:54;;;;;;;17.17;6.28;;;11.00;78.30;;;;;;5034288;28;20434;-63
2023/03/20 11:26:31;;;;;;;8.00;3.70;;;11.10;82.90;;;;;;5048253;28;20125;-64
2023/03/20 11:28:59;;;;;;;11.38;5.13;;;11.10;79.00;;;;;;5050169;28;20041;-64
2023/03/20 11:31:33;;;;;;;15.70;5.72;;;11.10;79.20;;;;;;5042132;28;20380;-64
2023/03/20 11:34:14;;;;;;;15.63;4.82;;;11.20;83.70;;;;;;5067795;28;20084;-64
2023/03/20 11:36:51;;;;;;;16.15;5.65;;;11.30;75.90;;;;;;5060412;28;20427;-64
2023/03/20 11:39:25;;;;;;;14.23;5.60;;;11.40;79.40;;;;;;5026311;28;20399;-64
2023/03/20 11:41:56;;;;;;;20.80;5.97;;;11.40;81.20;;;;;;5056086;28;20057;-63
2023/03/20 11:44:23;;;;;;;14.95;6.18;;;11.50;80.50;;;;;;5057442;28;20049;-63
2023/03/20 11:47:04;;;;;;;10.77;4.55;;;11.30;79.70;;;;;;5050725;28;20040;-63
2023/03/20 11:49:32;;;;;;;12.15;5.47;;;11.30;76.70;;;;;;5048552;28;20052;-64
2023/03/20 11:52:11;;;;;;;11.13;4.13;;;11.20;81.90;;;;;;5017153;28;20491;-63
2023/03/20 11:54:51;;;;;;;4.07;2.15;;;11.10;80.40;;;;;;5063056;28;20852;-64
2023/03/20 11:57:36;;;;;;;15.27;4.78;;;11.00;80.90;;;;;;5056600;28;20040;-64
2023/03/20 12:00:27;;;;;;;11.90;4.30;;;10.90;78.70;;;;;;5058729;28;20056;-63
2023/03/20 12:02:53;;;;;;;14.75;4.35;;;10.80;80.70;;;;;;5065507;28;20049;-64
2023/03/20 12:05:28;;;;;;;9.52;3.45;;;10.80;78.40;;;;;;5060586;28;20502;-64
2023/03/20 12:07:59;;;;;;;13.77;4.10;;;10.70;82.60;;;;;;5043571;28;20085;-63
2023/03/20 12:10:38;;;;;;;6.70;2.78;;;10.70;81.90;;;;;;5033073;28;20041;-64
2023/03/20 12:13:19;;;;;;;9.20;2.97;;;10.60;79.90;;;;;;5033168;28;20110;-64
2023/03/20 12:15:53;;;;;;;11.32;3.95;;;10.50;83.30;;;;;;5062508;28;20080;-64
2023/03/20 12:18:32;;;;;;;6.25;2.92;;;10.50;83.30;;;;;;5065136;28;20502;-63
2023/03/20 12:21:04;;;;;;;10.43;3.78;;;10.40;85.90;;;;;;5028566;28;20052;-64
2023/03/20 12:23:42;;;;;;;4.65;1.77;;;10.40;85.30;;;;;;5052815;28;20124;-63
2023/03/20 12:26:20;;;;;;;14.63;3.10;;;10.40;83.90;;;;;;5034616;28;20056;-64
2023/03/20 12:28:45;;;;;;;4.10;2.05;;;10.50;83.30;;;;;;5049210;28;20132;-64
2023/03/20 12:31:20;;;;;;;12.38;3.20;;;10.40;83.40;;;;;;5051403;28;20132;-64
2023/03/20 12:33:45;;;;;;;8.23;2.40;;;10.40;82.50;;;;;;5064407;28;20462;-63
2023/03/20 12:36:16;;;;;;;8.70;2.72;;;10.30;84.10;;;;;;5062585;28;20051;-64
2023/03/20 12:38:44;;;;;;;4.63;2.03;;;10.30;83.90;;;;;;5066660;28;20056;-64
2023/03/20 12:41:21;;;;;;;12.88;2.90;;;10.30;88.10;;;;;;5061896;28;20120;-64
2023/03/20 12:44:01;;;;;;;11.25;2.92;;;10.20;89.50;;;;;;5065338;28;20502;-64
2023/03/20 12:46:42;;;;;;;8.90;2.67;;;10.20;89.50;;;;;;5060485;28;20433;-64
2023/03/20 12:49:26;;;;;;;11.45;2.72;;;10.30;91.40;;;;;;5057706;28;20040;-64
2023/03/20 12:52:04;;;;;;;13.25;3.28;;;10.30;91.20;;;;;;5047790;28;20509;-64
2023/03/20 12:54:45;;;;;;;7.22;2.10;;;10.30;90.80;;;;;;5065007;28;20109;-64
2023/03/20 12:58:01;;;;;;;9.32;3.00;;;10.20;86.80;;;;;;5060891;28;20048;-64
2023/03/20 13:00:33;;;;;;;6.50;1.80;;;10.10;88.70;;;;;;5047757;28;20114;-64
2023/03/20 13:03:16;;;;;;;7.85;1.90;;;10.00;90.30;;;;;;5044630;28;20048;-64
2023/03/20 13:06:03;;;;;;;11.38;3.00;;;10.00;91.70;;;;;;5061321;28;20494;-64
2023/03/20 13:08:48;;;;;;;6.97;2.25;;;10.00;93.50;;;;;;5055480;28;20044;-63